sensor_id;sensor_type;location;lat;lon;timestamp;P1;durP1;ratioP1;P2;durP2;ratioP2
66153;SDS011;52956;52.372;4.640;2022-07-15T00:01:37;5.15;;;1.30;;
66153;SDS011;52956;52.372;4.640;2022-07-15T00:04:03;6.15;;;1.42;;
66153;SDS011;52956;52.372;4.640;2022-07-15T00:06:28;5.22;;;1.27;;
66153;SDS011;52956;52.372;4.640;2022-07-15T00:08:54;4.22;;;1.50;;
66153;SDS011;52956;52.372;4.640;2022-07-15T00:11:20;3.65;;;1.30;;
66153;SDS011;52956;52.372;4.640;2022-07-15T00:13:45;5.55;;;1.20;;
66153;SDS011;52956;52.372;4.640;2022-07-15T00:16:11;5.47;;;1.88;;
66153;SDS011;52956;52.372;4.640;2022-07-15T00:18:38;6.93;;;1.45;;
66153;SDS011;52956;52.372;4.640;2022-07-15T00:21:05;5.38;;;1.25;;
66153;SDS011;52956;52.372;4.640;2022-07-15T00:23:30;10.55;;;1.80;;
66153;SDS011;52956;52.372;4.640;2022-07-15T00:25:55;7.93;;;1.60;;
66153;SDS011;52956;52.372;4.640;2022-07-15T00:28:20;4.57;;;1.40;;
66153;SDS011;52956;52.372;4.640;2022-07-15T00:30:46;4.95;;;1.27;;
66153;SDS011;52956;52.372;4.640;2022-07-15T00:33:11;3.65;;;1.08;;
66153;SDS011;52956;52.372;4.640;2022-07-15T00:35:37;4.82;;;1.35;;
66153;SDS011;52956;52.372;4.640;2022-07-15T00:38:03;3.80;;;1.27;;
66153;SDS011;52956;52.372;4.640;2022-07-15T00:40:31;5.88;;;1.40;;
66153;SDS011;52956;52.372;4.640;2022-07-15T00:43:04;8.70;;;1.50;;
66153;SDS011;52956;52.372;4.640;2022-07-15T00:45:30;4.95;;;1.30;;
66153;SDS011;52956;52.372;4.640;2022-07-15T00:47:56;3.67;;;1.20;;
66153;SDS011;52956;52.372;4.640;2022-07-15T00:50:23;3.70;;;1.20;;
66153;SDS011;52956;52.372;4.640;2022-07-15T00:55:30;5.78;;;1.10;;
66153;SDS011;52956;52.372;4.640;2022-07-15T00:57:57;2.80;;;1.25;;
66153;SDS011;52956;52.372;4.640;2022-07-15T01:00:27;4.40;;;1.20;;
66153;SDS011;52956;52.372;4.640;2022-07-15T01:02:52;4.80;;;1.33;;
66153;SDS011;52956;52.372;4.640;2022-07-15T01:05:20;2.85;;;0.90;;
66153;SDS011;52956;52.372;4.640;2022-07-15T01:07:47;3.83;;;0.93;;
66153;SDS011;52956;52.372;4.640;2022-07-15T01:10:15;3.70;;;1.35;;
66153;SDS011;52956;52.372;4.640;2022-07-15T01:12:41;5.15;;;1.08;;
66153;SDS011;52956;52.372;4.640;2022-07-15T01:15:07;2.33;;;0.85;;
66153;SDS011;52956;52.372;4.640;2022-07-15T01:17:33;4.05;;;0.68;;
66153;SDS011;52956;52.372;4.640;2022-07-15T01:19:58;4.30;;;1.23;;
66153;SDS011;52956;52.372;4.640;2022-07-15T01:22:24;4.88;;;0.93;;
66153;SDS011;52956;52.372;4.640;2022-07-15T01:24:51;5.22;;;1.42;;
66153;SDS011;52956;52.372;4.640;2022-07-15T01:27:17;3.78;;;0.90;;
66153;SDS011;52956;52.372;4.640;2022-07-15T01:29:43;2.75;;;0.85;;
66153;SDS011;52956;52.372;4.640;2022-07-15T01:32:09;2.50;;;1.13;;
66153;SDS011;52956;52.372;4.640;2022-07-15T01:34:34;3.53;;;1.00;;
66153;SDS011;52956;52.372;4.640;2022-07-15T01:36:59;4.70;;;1.23;;
66153;SDS011;52956;52.372;4.640;2022-07-15T01:39:25;5.07;;;0.85;;
66153;SDS011;52956;52.372;4.640;2022-07-15T01:41:50;3.78;;;0.73;;
66153;SDS011;52956;52.372;4.640;2022-07-15T01:44:15;2.17;;;0.70;;
66153;SDS011;52956;52.372;4.640;2022-07-15T01:46:41;2.90;;;0.70;;
66153;SDS011;52956;52.372;4.640;2022-07-15T01:49:06;5.30;;;0.95;;
66153;SDS011;52956;52.372;4.640;2022-07-15T01:51:50;4.45;;;1.05;;
66153;SDS011;52956;52.372;4.640;2022-07-15T01:54:15;4.78;;;1.10;;
66153;SDS011;52956;52.372;4.640;2022-07-15T01:56:42;2.08;;;0.70;;
66153;SDS011;52956;52.372;4.640;2022-07-15T01:59:07;3.17;;;0.80;;
66153;SDS011;52956;52.372;4.640;2022-07-15T02:01:33;4.95;;;0.88;;
66153;SDS011;52956;52.372;4.640;2022-07-15T02:03:59;4.70;;;1.08;;
66153;SDS011;52956;52.372;4.640;2022-07-15T02:06:24;3.42;;;0.95;;
66153;SDS011;52956;52.372;4.640;2022-07-15T02:08:50;3.00;;;0.80;;
66153;SDS011;52956;52.372;4.640;2022-07-15T02:11:15;4.63;;;1.27;;
66153;SDS011;52956;52.372;4.640;2022-07-15T02:13:41;3.20;;;0.90;;
66153;SDS011;52956;52.372;4.640;2022-07-15T02:16:06;4.47;;;1.10;;
66153;SDS011;52956;52.372;4.640;2022-07-15T02:18:32;4.22;;;1.10;;
66153;SDS011;52956;52.372;4.640;2022-07-15T02:20:57;3.42;;;0.60;;
66153;SDS011;52956;52.372;4.640;2022-07-15T02:23:22;7.20;;;1.10;;
66153;SDS011;52956;52.372;4.640;2022-07-15T02:25:48;2.63;;;0.93;;
66153;SDS011;52956;52.372;4.640;2022-07-15T02:28:14;3.03;;;0.98;;
66153;SDS011;52956;52.372;4.640;2022-07-15T02:30:41;4.35;;;1.13;;
66153;SDS011;52956;52.372;4.640;2022-07-15T02:33:07;5.85;;;1.10;;
66153;SDS011;52956;52.372;4.640;2022-07-15T02:35:33;3.22;;;0.95;;
66153;SDS011;52956;52.372;4.640;2022-07-15T02:37:59;2.47;;;1.00;;
66153;SDS011;52956;52.372;4.640;2022-07-15T02:40:25;3.58;;;1.08;;
66153;SDS011;52956;52.372;4.640;2022-07-15T02:42:52;5.22;;;1.20;;
66153;SDS011;52956;52.372;4.640;2022-07-15T02:45:20;6.20;;;1.00;;
66153;SDS011;52956;52.372;4.640;2022-07-15T02:47:47;6.00;;;1.30;;
66153;SDS011;52956;52.372;4.640;2022-07-15T02:50:14;3.40;;;1.10;;
66153;SDS011;52956;52.372;4.640;2022-07-15T02:52:40;4.95;;;1.23;;
66153;SDS011;52956;52.372;4.640;2022-07-15T02:55:06;3.60;;;0.93;;
66153;SDS011;52956;52.372;4.640;2022-07-15T02:57:32;4.32;;;1.05;;
66153;SDS011;52956;52.372;4.640;2022-07-15T02:59:57;2.72;;;0.90;;
66153;SDS011;52956;52.372;4.640;2022-07-15T03:02:23;3.63;;;1.05;;
66153;SDS011;52956;52.372;4.640;2022-07-15T03:04:49;4.78;;;1.13;;
66153;SDS011;52956;52.372;4.640;2022-07-15T03:07:14;6.78;;;1.20;;
66153;SDS011;52956;52.372;4.640;2022-07-15T03:09:39;3.45;;;0.70;;
66153;SDS011;52956;52.372;4.640;2022-07-15T03:12:05;1.90;;;0.80;;
66153;SDS011;52956;52.372;4.640;2022-07-15T03:14:30;3.30;;;1.30;;
66153;SDS011;52956;52.372;4.640;2022-07-15T03:16:56;3.38;;;1.00;;
66153;SDS011;52956;52.372;4.640;2022-07-15T03:19:21;4.72;;;0.93;;
66153;SDS011;52956;52.372;4.640;2022-07-15T03:21:47;4.50;;;0.98;;
66153;SDS011;52956;52.372;4.640;2022-07-15T03:24:13;4.18;;;1.23;;
66153;SDS011;52956;52.372;4.640;2022-07-15T03:26:39;3.28;;;1.10;;
66153;SDS011;52956;52.372;4.640;2022-07-15T03:29:04;3.42;;;1.10;;
66153;SDS011;52956;52.372;4.640;2022-07-15T03:31:30;3.50;;;0.95;;
66153;SDS011;52956;52.372;4.640;2022-07-15T03:33:55;3.75;;;0.88;;
66153;SDS011;52956;52.372;4.640;2022-07-15T03:36:21;4.57;;;0.90;;
66153;SDS011;52956;52.372;4.640;2022-07-15T03:38:46;4.60;;;0.77;;
66153;SDS011;52956;52.372;4.640;2022-07-15T03:41:14;6.68;;;1.10;;
66153;SDS011;52956;52.372;4.640;2022-07-15T03:43:39;2.85;;;0.90;;
66153;SDS011;52956;52.372;4.640;2022-07-15T03:46:04;2.05;;;0.88;;
66153;SDS011;52956;52.372;4.640;2022-07-15T03:48:30;2.78;;;1.00;;
66153;SDS011;52956;52.372;4.640;2022-07-15T03:50:55;3.33;;;0.95;;
66153;SDS011;52956;52.372;4.640;2022-07-15T03:53:21;2.17;;;0.85;;
66153;SDS011;52956;52.372;4.640;2022-07-15T03:55:46;4.38;;;1.00;;
66153;SDS011;52956;52.372;4.640;2022-07-15T03:58:11;3.97;;;1.30;;
66153;SDS011;52956;52.372;4.640;2022-07-15T04:00:37;4.03;;;1.20;;
66153;SDS011;52956;52.372;4.640;2022-07-15T04:03:02;5.72;;;1.15;;
66153;SDS011;52956;52.372;4.640;2022-07-15T04:05:27;2.65;;;1.00;;
66153;SDS011;52956;52.372;4.640;2022-07-15T04:07:53;3.63;;;0.93;;
66153;SDS011;52956;52.372;4.640;2022-07-15T04:10:18;5.65;;;1.00;;
66153;SDS011;52956;52.372;4.640;2022-07-15T04:12:43;4.40;;;1.13;;
66153;SDS011;52956;52.372;4.640;2022-07-15T04:15:09;2.22;;;0.75;;
66153;SDS011;52956;52.372;4.640;2022-07-15T04:17:35;2.58;;;0.90;;
66153;SDS011;52956;52.372;4.640;2022-07-15T04:20:00;5.72;;;1.30;;
66153;SDS011;52956;52.372;4.640;2022-07-15T04:22:26;5.20;;;1.25;;
66153;SDS011;52956;52.372;4.640;2022-07-15T04:24:51;3.78;;;1.08;;
66153;SDS011;52956;52.372;4.640;2022-07-15T04:27:17;5.85;;;1.05;;
66153;SDS011;52956;52.372;4.640;2022-07-15T04:29:43;1.95;;;0.80;;
66153;SDS011;52956;52.372;4.640;2022-07-15T04:32:08;4.60;;;0.88;;
66153;SDS011;52956;52.372;4.640;2022-07-15T04:34:33;3.33;;;1.10;;
66153;SDS011;52956;52.372;4.640;2022-07-15T04:36:59;5.30;;;0.80;;
66153;SDS011;52956;52.372;4.640;2022-07-15T04:39:24;7.47;;;1.20;;
66153;SDS011;52956;52.372;4.640;2022-07-15T04:41:49;7.75;;;1.02;;
66153;SDS011;52956;52.372;4.640;2022-07-15T04:44:16;5.47;;;0.98;;
66153;SDS011;52956;52.372;4.640;2022-07-15T04:46:42;6.47;;;1.25;;
66153;SDS011;52956;52.372;4.640;2022-07-15T04:49:07;4.05;;;1.10;;
66153;SDS011;52956;52.372;4.640;2022-07-15T04:51:51;4.50;;;0.80;;
66153;SDS011;52956;52.372;4.640;2022-07-15T04:54:16;3.17;;;1.00;;
66153;SDS011;52956;52.372;4.640;2022-07-15T04:56:42;8.23;;;1.42;;
66153;SDS011;52956;52.372;4.640;2022-07-15T04:59:07;2.05;;;0.68;;
66153;SDS011;52956;52.372;4.640;2022-07-15T05:01:32;3.05;;;1.02;;
66153;SDS011;52956;52.372;4.640;2022-07-15T05:03:58;2.58;;;0.80;;
66153;SDS011;52956;52.372;4.640;2022-07-15T05:06:24;2.30;;;0.90;;
66153;SDS011;52956;52.372;4.640;2022-07-15T05:08:49;1.95;;;0.88;;
66153;SDS011;52956;52.372;4.640;2022-07-15T05:11:14;3.38;;;0.65;;
66153;SDS011;52956;52.372;4.640;2022-07-15T05:13:40;2.35;;;1.05;;
66153;SDS011;52956;52.372;4.640;2022-07-15T05:16:05;5.72;;;1.00;;
66153;SDS011;52956;52.372;4.640;2022-07-15T05:18:30;3.47;;;0.88;;
66153;SDS011;52956;52.372;4.640;2022-07-15T05:20:56;3.35;;;0.90;;
66153;SDS011;52956;52.372;4.640;2022-07-15T05:23:21;1.48;;;0.70;;
66153;SDS011;52956;52.372;4.640;2022-07-15T05:25:46;1.95;;;0.90;;
66153;SDS011;52956;52.372;4.640;2022-07-15T05:28:12;2.58;;;0.73;;
66153;SDS011;52956;52.372;4.640;2022-07-15T05:30:37;2.30;;;0.85;;
66153;SDS011;52956;52.372;4.640;2022-07-15T05:33:02;3.28;;;0.75;;
66153;SDS011;52956;52.372;4.640;2022-07-15T05:35:28;2.70;;;0.85;;
66153;SDS011;52956;52.372;4.640;2022-07-15T05:37:54;3.47;;;0.75;;
66153;SDS011;52956;52.372;4.640;2022-07-15T05:40:19;4.00;;;0.95;;
66153;SDS011;52956;52.372;4.640;2022-07-15T05:42:44;3.50;;;0.90;;
66153;SDS011;52956;52.372;4.640;2022-07-15T05:45:10;2.30;;;0.75;;
66153;SDS011;52956;52.372;4.640;2022-07-15T05:47:35;4.18;;;0.75;;
66153;SDS011;52956;52.372;4.640;2022-07-15T05:50:01;2.42;;;0.95;;
66153;SDS011;52956;52.372;4.640;2022-07-15T05:52:26;3.67;;;0.82;;
66153;SDS011;52956;52.372;4.640;2022-07-15T05:54:52;2.00;;;0.77;;
66153;SDS011;52956;52.372;4.640;2022-07-15T05:57:17;1.50;;;0.70;;
66153;SDS011;52956;52.372;4.640;2022-07-15T05:59:42;2.35;;;0.80;;
66153;SDS011;52956;52.372;4.640;2022-07-15T06:02:08;4.25;;;1.00;;
66153;SDS011;52956;52.372;4.640;2022-07-15T06:04:33;4.93;;;0.90;;
66153;SDS011;52956;52.372;4.640;2022-07-15T06:06:58;2.53;;;0.90;;
66153;SDS011;52956;52.372;4.640;2022-07-15T06:09:24;5.93;;;1.02;;
66153;SDS011;52956;52.372;4.640;2022-07-15T06:11:49;5.43;;;1.05;;
66153;SDS011;52956;52.372;4.640;2022-07-15T06:14:15;4.40;;;1.35;;
66153;SDS011;52956;52.372;4.640;2022-07-15T06:16:40;12.35;;;2.47;;
66153;SDS011;52956;52.372;4.640;2022-07-15T06:19:06;7.13;;;1.83;;
66153;SDS011;52956;52.372;4.640;2022-07-15T06:21:33;8.27;;;2.05;;
66153;SDS011;52956;52.372;4.640;2022-07-15T06:24:00;15.60;;;3.38;;
66153;SDS011;52956;52.372;4.640;2022-07-15T06:26:25;9.90;;;2.33;;
66153;SDS011;52956;52.372;4.640;2022-07-15T06:28:51;12.45;;;3.95;;
66153;SDS011;52956;52.372;4.640;2022-07-15T06:31:16;5.55;;;2.40;;
66153;SDS011;52956;52.372;4.640;2022-07-15T06:33:41;10.45;;;2.63;;
66153;SDS011;52956;52.372;4.640;2022-07-15T06:36:07;8.05;;;2.22;;
66153;SDS011;52956;52.372;4.640;2022-07-15T06:38:32;14.52;;;2.63;;
66153;SDS011;52956;52.372;4.640;2022-07-15T06:40:58;11.07;;;2.40;;
66153;SDS011;52956;52.372;4.640;2022-07-15T06:43:24;10.52;;;1.90;;
66153;SDS011;52956;52.372;4.640;2022-07-15T06:45:49;11.55;;;1.75;;
66153;SDS011;52956;52.372;4.640;2022-07-15T06:48:14;15.95;;;1.65;;
66153;SDS011;52956;52.372;4.640;2022-07-15T06:50:40;10.75;;;1.40;;
66153;SDS011;52956;52.372;4.640;2022-07-15T06:53:06;6.82;;;1.63;;
66153;SDS011;52956;52.372;4.640;2022-07-15T06:55:31;7.75;;;1.40;;
66153;SDS011;52956;52.372;4.640;2022-07-15T06:57:56;4.32;;;1.05;;
66153;SDS011;52956;52.372;4.640;2022-07-15T07:00:22;2.75;;;1.00;;
66153;SDS011;52956;52.372;4.640;2022-07-15T07:02:47;3.72;;;1.08;;
66153;SDS011;52956;52.372;4.640;2022-07-15T07:05:12;4.18;;;1.15;;
66153;SDS011;52956;52.372;4.640;2022-07-15T07:07:38;3.90;;;0.90;;
66153;SDS011;52956;52.372;4.640;2022-07-15T07:10:03;4.30;;;1.10;;
66153;SDS011;52956;52.372;4.640;2022-07-15T07:12:29;3.17;;;0.80;;
66153;SDS011;52956;52.372;4.640;2022-07-15T07:14:54;2.85;;;0.88;;
66153;SDS011;52956;52.372;4.640;2022-07-15T07:17:19;4.50;;;0.80;;
66153;SDS011;52956;52.372;4.640;2022-07-15T07:19:45;2.63;;;0.80;;
66153;SDS011;52956;52.372;4.640;2022-07-15T07:22:10;1.73;;;0.88;;
66153;SDS011;52956;52.372;4.640;2022-07-15T07:24:36;3.65;;;0.75;;
66153;SDS011;52956;52.372;4.640;2022-07-15T07:27:01;4.40;;;0.93;;
66153;SDS011;52956;52.372;4.640;2022-07-15T07:29:27;2.28;;;0.80;;
66153;SDS011;52956;52.372;4.640;2022-07-15T07:31:52;1.65;;;0.57;;
66153;SDS011;52956;52.372;4.640;2022-07-15T07:34:17;1.98;;;0.98;;
66153;SDS011;52956;52.372;4.640;2022-07-15T07:36:44;2.05;;;0.80;;
66153;SDS011;52956;52.372;4.640;2022-07-15T07:39:10;3.53;;;0.90;;
66153;SDS011;52956;52.372;4.640;2022-07-15T07:41:35;2.38;;;0.70;;
66153;SDS011;52956;52.372;4.640;2022-07-15T07:44:01;2.35;;;0.77;;
66153;SDS011;52956;52.372;4.640;2022-07-15T07:46:26;2.05;;;0.82;;
66153;SDS011;52956;52.372;4.640;2022-07-15T07:48:52;1.55;;;0.80;;
66153;SDS011;52956;52.372;4.640;2022-07-15T07:51:17;3.30;;;0.68;;
66153;SDS011;52956;52.372;4.640;2022-07-15T07:53:43;1.50;;;0.70;;
66153;SDS011;52956;52.372;4.640;2022-07-15T07:56:08;1.88;;;0.52;;
66153;SDS011;52956;52.372;4.640;2022-07-15T07:58:33;3.67;;;1.13;;
66153;SDS011;52956;52.372;4.640;2022-07-15T08:00:59;3.05;;;0.80;;
66153;SDS011;52956;52.372;4.640;2022-07-15T08:03:24;1.17;;;0.73;;
66153;SDS011;52956;52.372;4.640;2022-07-15T08:05:50;2.00;;;0.75;;
66153;SDS011;52956;52.372;4.640;2022-07-15T08:08:16;2.85;;;0.70;;
66153;SDS011;52956;52.372;4.640;2022-07-15T08:10:44;2.70;;;0.80;;
66153;SDS011;52956;52.372;4.640;2022-07-15T08:13:15;3.58;;;0.85;;
66153;SDS011;52956;52.372;4.640;2022-07-15T08:15:41;3.08;;;0.60;;
66153;SDS011;52956;52.372;4.640;2022-07-15T08:18:07;2.25;;;0.65;;
66153;SDS011;52956;52.372;4.640;2022-07-15T08:20:32;3.25;;;0.57;;
66153;SDS011;52956;52.372;4.640;2022-07-15T08:22:58;3.35;;;0.60;;
66153;SDS011;52956;52.372;4.640;2022-07-15T08:25:25;2.30;;;0.47;;
66153;SDS011;52956;52.372;4.640;2022-07-15T08:27:52;2.30;;;0.68;;
66153;SDS011;52956;52.372;4.640;2022-07-15T08:30:17;1.77;;;0.60;;
66153;SDS011;52956;52.372;4.640;2022-07-15T08:32:42;1.00;;;0.50;;
66153;SDS011;52956;52.372;4.640;2022-07-15T08:35:08;0.93;;;0.55;;
66153;SDS011;52956;52.372;4.640;2022-07-15T08:37:33;2.38;;;0.70;;
66153;SDS011;52956;52.372;4.640;2022-07-15T08:39:58;0.80;;;0.30;;
66153;SDS011;52956;52.372;4.640;2022-07-15T08:42:24;3.38;;;0.60;;
66153;SDS011;52956;52.372;4.640;2022-07-15T08:44:49;2.40;;;0.80;;
66153;SDS011;52956;52.372;4.640;2022-07-15T08:47:14;0.93;;;0.50;;
66153;SDS011;52956;52.372;4.640;2022-07-15T08:49:41;1.00;;;0.43;;
66153;SDS011;52956;52.372;4.640;2022-07-15T08:52:10;1.98;;;0.55;;
66153;SDS011;52956;52.372;4.640;2022-07-15T08:54:36;2.65;;;0.60;;
66153;SDS011;52956;52.372;4.640;2022-07-15T08:57:02;2.63;;;0.65;;
66153;SDS011;52956;52.372;4.640;2022-07-15T08:59:27;2.80;;;0.60;;
66153;SDS011;52956;52.372;4.640;2022-07-15T09:01:53;1.58;;;0.40;;
66153;SDS011;52956;52.372;4.640;2022-07-15T09:04:18;4.30;;;0.60;;
66153;SDS011;52956;52.372;4.640;2022-07-15T09:06:48;1.73;;;0.70;;
66153;SDS011;52956;52.372;4.640;2022-07-15T09:09:30;1.50;;;0.80;;
66153;SDS011;52956;52.372;4.640;2022-07-15T09:14:31;1.67;;;0.80;;
66153;SDS011;52956;52.372;4.640;2022-07-15T09:22:30;7.53;;;1.48;;
66153;SDS011;52956;52.372;4.640;2022-07-15T09:25:12;4.38;;;1.52;;
66153;SDS011;52956;52.372;4.640;2022-07-15T09:27:38;6.30;;;1.27;;
66153;SDS011;52956;52.372;4.640;2022-07-15T09:33:00;4.55;;;1.40;;
66153;SDS011;52956;52.372;4.640;2022-07-15T09:35:45;6.15;;;1.20;;
66153;SDS011;52956;52.372;4.640;2022-07-15T09:38:37;2.90;;;1.20;;
66153;SDS011;52956;52.372;4.640;2022-07-15T09:41:08;7.60;;;1.25;;
66153;SDS011;52956;52.372;4.640;2022-07-15T09:43:42;4.80;;;1.40;;
66153;SDS011;52956;52.372;4.640;2022-07-15T09:46:11;3.97;;;1.38;;
66153;SDS011;52956;52.372;4.640;2022-07-15T09:48:41;7.55;;;1.40;;
66153;SDS011;52956;52.372;4.640;2022-07-15T09:51:08;5.88;;;1.40;;
66153;SDS011;52956;52.372;4.640;2022-07-15T09:53:34;7.78;;;1.67;;
66153;SDS011;52956;52.372;4.640;2022-07-15T09:55:59;9.18;;;1.90;;
66153;SDS011;52956;52.372;4.640;2022-07-15T09:58:25;6.82;;;1.80;;
66153;SDS011;52956;52.372;4.640;2022-07-15T10:00:52;5.40;;;1.95;;
66153;SDS011;52956;52.372;4.640;2022-07-15T10:03:18;4.70;;;1.83;;
66153;SDS011;52956;52.372;4.640;2022-07-15T10:05:46;4.60;;;1.70;;
66153;SDS011;52956;52.372;4.640;2022-07-15T10:08:18;4.13;;;1.52;;
66153;SDS011;52956;52.372;4.640;2022-07-15T10:10:44;5.78;;;1.58;;
66153;SDS011;52956;52.372;4.640;2022-07-15T10:24:14;3.95;;;1.13;;
66153;SDS011;52956;52.372;4.640;2022-07-15T10:29:54;2.70;;;1.08;;
66153;SDS011;52956;52.372;4.640;2022-07-15T10:32:20;4.22;;;1.27;;
66153;SDS011;52956;52.372;4.640;2022-07-15T10:34:45;3.92;;;1.33;;
66153;SDS011;52956;52.372;4.640;2022-07-15T10:37:11;4.18;;;0.95;;
66153;SDS011;52956;52.372;4.640;2022-07-15T10:39:50;2.33;;;1.13;;
66153;SDS011;52956;52.372;4.640;2022-07-15T10:42:16;2.95;;;1.00;;
66153;SDS011;52956;52.372;4.640;2022-07-15T10:45:05;4.05;;;1.20;;
66153;SDS011;52956;52.372;4.640;2022-07-15T10:47:31;2.78;;;1.10;;
66153;SDS011;52956;52.372;4.640;2022-07-15T10:49:58;1.83;;;1.00;;
66153;SDS011;52956;52.372;4.640;2022-07-15T10:52:26;1.80;;;0.90;;
66153;SDS011;52956;52.372;4.640;2022-07-15T10:57:21;2.37;;;0.80;;
66153;SDS011;52956;52.372;4.640;2022-07-15T11:05:42;2.87;;;0.80;;
66153;SDS011;52956;52.372;4.640;2022-07-15T11:13:39;2.33;;;0.60;;
66153;SDS011;52956;52.372;4.640;2022-07-15T11:16:05;3.03;;;1.00;;
66153;SDS011;52956;52.372;4.640;2022-07-15T11:18:47;2.45;;;0.77;;
66153;SDS011;52956;52.372;4.640;2022-07-15T11:21:13;2.28;;;0.73;;
66153;SDS011;52956;52.372;4.640;2022-07-15T11:23:39;1.00;;;0.70;;
66153;SDS011;52956;52.372;4.640;2022-07-15T11:26:07;1.42;;;0.70;;
66153;SDS011;52956;52.372;4.640;2022-07-15T11:28:34;1.75;;;0.73;;
66153;SDS011;52956;52.372;4.640;2022-07-15T11:31:00;1.55;;;0.70;;
66153;SDS011;52956;52.372;4.640;2022-07-15T11:33:26;4.55;;;0.70;;
66153;SDS011;52956;52.372;4.640;2022-07-15T11:35:56;0.95;;;0.52;;
66153;SDS011;52956;52.372;4.640;2022-07-15T11:38:23;0.95;;;0.63;;
66153;SDS011;52956;52.372;4.640;2022-07-15T11:40:53;0.55;;;0.55;;
66153;SDS011;52956;52.372;4.640;2022-07-15T11:43:39;0.77;;;0.70;;
66153;SDS011;52956;52.372;4.640;2022-07-15T11:46:24;2.25;;;0.68;;
66153;SDS011;52956;52.372;4.640;2022-07-15T11:48:51;2.00;;;0.60;;
66153;SDS011;52956;52.372;4.640;2022-07-15T11:51:23;1.25;;;0.70;;
66153;SDS011;52956;52.372;4.640;2022-07-15T11:53:50;1.40;;;0.55;;
66153;SDS011;52956;52.372;4.640;2022-07-15T11:56:15;0.75;;;0.70;;
66153;SDS011;52956;52.372;4.640;2022-07-15T12:01:15;1.70;;;0.80;;
66153;SDS011;52956;52.372;4.640;2022-07-15T12:03:46;0.93;;;0.55;;
66153;SDS011;52956;52.372;4.640;2022-07-15T12:06:18;2.85;;;0.70;;
66153;SDS011;52956;52.372;4.640;2022-07-15T12:08:52;2.60;;;0.90;;
66153;SDS011;52956;52.372;4.640;2022-07-15T12:13:51;1.45;;;0.70;;
66153;SDS011;52956;52.372;4.640;2022-07-15T12:16:21;0.77;;;0.68;;
66153;SDS011;52956;52.372;4.640;2022-07-15T12:18:50;1.63;;;0.60;;
66153;SDS011;52956;52.372;4.640;2022-07-15T12:21:18;0.57;;;0.57;;
66153;SDS011;52956;52.372;4.640;2022-07-15T12:26:40;2.20;;;0.85;;
66153;SDS011;52956;52.372;4.640;2022-07-15T12:29:20;0.70;;;0.55;;
66153;SDS011;52956;52.372;4.640;2022-07-15T12:31:51;1.08;;;0.60;;
66153;SDS011;52956;52.372;4.640;2022-07-15T12:34:17;0.90;;;0.80;;
66153;SDS011;52956;52.372;4.640;2022-07-15T12:36:42;1.40;;;0.88;;
66153;SDS011;52956;52.372;4.640;2022-07-15T12:39:15;1.65;;;0.90;;
66153;SDS011;52956;52.372;4.640;2022-07-15T12:41:42;1.98;;;0.70;;
66153;SDS011;52956;52.372;4.640;2022-07-15T12:44:08;1.65;;;0.68;;
66153;SDS011;52956;52.372;4.640;2022-07-15T12:46:47;0.70;;;0.68;;
66153;SDS011;52956;52.372;4.640;2022-07-15T12:52:22;0.60;;;0.60;;
66153;SDS011;52956;52.372;4.640;2022-07-15T12:54:50;0.80;;;0.70;;
66153;SDS011;52956;52.372;4.640;2022-07-15T12:57:28;1.38;;;0.80;;
66153;SDS011;52956;52.372;4.640;2022-07-15T13:02:25;0.65;;;0.60;;
66153;SDS011;52956;52.372;4.640;2022-07-15T13:04:51;0.80;;;0.80;;
66153;SDS011;52956;52.372;4.640;2022-07-15T13:07:17;1.60;;;1.00;;
66153;SDS011;52956;52.372;4.640;2022-07-15T13:09:43;2.30;;;0.85;;
66153;SDS011;52956;52.372;4.640;2022-07-15T13:12:10;1.10;;;0.90;;
66153;SDS011;52956;52.372;4.640;2022-07-15T13:14:37;2.80;;;0.90;;
66153;SDS011;52956;52.372;4.640;2022-07-15T13:17:02;2.13;;;0.98;;
66153;SDS011;52956;52.372;4.640;2022-07-15T13:19:28;1.90;;;1.02;;
66153;SDS011;52956;52.372;4.640;2022-07-15T13:21:53;6.43;;;1.08;;
66153;SDS011;52956;52.372;4.640;2022-07-15T13:24:18;2.35;;;1.00;;
66153;SDS011;52956;52.372;4.640;2022-07-15T13:26:44;3.88;;;1.20;;
66153;SDS011;52956;52.372;4.640;2022-07-15T13:29:09;1.98;;;1.17;;
66153;SDS011;52956;52.372;4.640;2022-07-15T13:31:34;2.80;;;0.90;;
66153;SDS011;52956;52.372;4.640;2022-07-15T13:34:00;2.80;;;0.90;;
66153;SDS011;52956;52.372;4.640;2022-07-15T13:36:25;4.50;;;1.20;;
66153;SDS011;52956;52.372;4.640;2022-07-15T13:38:50;1.50;;;0.90;;
66153;SDS011;52956;52.372;4.640;2022-07-15T13:41:15;2.72;;;1.15;;
66153;SDS011;52956;52.372;4.640;2022-07-15T13:43:41;1.20;;;1.00;;
66153;SDS011;52956;52.372;4.640;2022-07-15T13:46:06;2.80;;;1.00;;
66153;SDS011;52956;52.372;4.640;2022-07-15T13:48:32;2.40;;;1.15;;
66153;SDS011;52956;52.372;4.640;2022-07-15T13:50:57;3.15;;;1.00;;
66153;SDS011;52956;52.372;4.640;2022-07-15T13:53:41;5.05;;;1.00;;
66153;SDS011;52956;52.372;4.640;2022-07-15T13:56:06;1.60;;;0.73;;
66153;SDS011;52956;52.372;4.640;2022-07-15T13:58:31;7.28;;;1.02;;
66153;SDS011;52956;52.372;4.640;2022-07-15T14:00:57;5.07;;;1.15;;
66153;SDS011;52956;52.372;4.640;2022-07-15T14:03:23;2.95;;;0.90;;
66153;SDS011;52956;52.372;4.640;2022-07-15T14:05:48;2.38;;;0.90;;
66153;SDS011;52956;52.372;4.640;2022-07-15T14:08:14;4.80;;;0.90;;
66153;SDS011;52956;52.372;4.640;2022-07-15T14:10:39;2.72;;;1.25;;
66153;SDS011;52956;52.372;4.640;2022-07-15T14:13:04;6.10;;;1.25;;
66153;SDS011;52956;52.372;4.640;2022-07-15T14:15:30;2.40;;;1.20;;
66153;SDS011;52956;52.372;4.640;2022-07-15T14:17:55;3.92;;;1.20;;
66153;SDS011;52956;52.372;4.640;2022-07-15T14:20:20;1.98;;;1.20;;
66153;SDS011;52956;52.372;4.640;2022-07-15T14:22:47;3.40;;;0.90;;
66153;SDS011;52956;52.372;4.640;2022-07-15T14:25:12;3.95;;;1.00;;
66153;SDS011;52956;52.372;4.640;2022-07-15T14:27:38;3.25;;;1.20;;
66153;SDS011;52956;52.372;4.640;2022-07-15T14:30:03;3.08;;;1.25;;
66153;SDS011;52956;52.372;4.640;2022-07-15T14:32:30;5.03;;;1.52;;
66153;SDS011;52956;52.372;4.640;2022-07-15T14:34:55;2.15;;;1.10;;
66153;SDS011;52956;52.372;4.640;2022-07-15T14:37:20;2.42;;;1.00;;
66153;SDS011;52956;52.372;4.640;2022-07-15T14:39:45;3.42;;;1.00;;
66153;SDS011;52956;52.372;4.640;2022-07-15T14:42:11;4.32;;;1.23;;
66153;SDS011;52956;52.372;4.640;2022-07-15T14:44:36;1.98;;;1.20;;
66153;SDS011;52956;52.372;4.640;2022-07-15T14:47:02;3.85;;;1.50;;
66153;SDS011;52956;52.372;4.640;2022-07-15T14:49:27;2.45;;;1.27;;
66153;SDS011;52956;52.372;4.640;2022-07-15T14:51:53;2.42;;;1.20;;
66153;SDS011;52956;52.372;4.640;2022-07-15T14:54:18;4.72;;;1.30;;
66153;SDS011;52956;52.372;4.640;2022-07-15T14:56:43;3.13;;;1.17;;
66153;SDS011;52956;52.372;4.640;2022-07-15T14:59:09;2.92;;;1.20;;
66153;SDS011;52956;52.372;4.640;2022-07-15T15:01:34;1.73;;;1.02;;
66153;SDS011;52956;52.372;4.640;2022-07-15T15:03:59;3.95;;;1.20;;
66153;SDS011;52956;52.372;4.640;2022-07-15T15:06:24;4.35;;;1.30;;
66153;SDS011;52956;52.372;4.640;2022-07-15T15:08:50;3.05;;;1.20;;
66153;SDS011;52956;52.372;4.640;2022-07-15T15:11:15;2.38;;;1.40;;
66153;SDS011;52956;52.372;4.640;2022-07-15T15:13:41;1.55;;;1.20;;
66153;SDS011;52956;52.372;4.640;2022-07-15T15:16:07;2.15;;;1.10;;
66153;SDS011;52956;52.372;4.640;2022-07-15T15:18:32;3.05;;;1.20;;
66153;SDS011;52956;52.372;4.640;2022-07-15T15:20:58;1.92;;;1.05;;
66153;SDS011;52956;52.372;4.640;2022-07-15T15:23:23;2.22;;;1.30;;
66153;SDS011;52956;52.372;4.640;2022-07-15T15:25:49;2.75;;;1.30;;
66153;SDS011;52956;52.372;4.640;2022-07-15T15:28:33;3.17;;;1.10;;
66153;SDS011;52956;52.372;4.640;2022-07-15T15:30:58;3.55;;;1.40;;
66153;SDS011;52956;52.372;4.640;2022-07-15T15:33:23;2.25;;;1.20;;
66153;SDS011;52956;52.372;4.640;2022-07-15T15:35:49;2.25;;;1.20;;
66153;SDS011;52956;52.372;4.640;2022-07-15T15:38:14;2.92;;;1.38;;
66153;SDS011;52956;52.372;4.640;2022-07-15T15:40:39;2.08;;;1.15;;